Time;durP1;ratioP1;P1;durP2;ratioP2;P2;SDS_P1;SDS_P2;PMS_P1;PMS_P2;Temp;Humidity;BMP_temperature;BMP_pressure;BME280_temperature;BME280_humidity;BME280_pressure;Samples;Min_cycle;Max_cycle;Signal;HPM_P1;HPM_P2
2021/01/15 00:01:48;;;;;;;24.70;13.98;;;-1.30;99.90;;;;;;4178531;28;20072;-81
2021/01/15 00:03:52;;;;;;;27.60;15.85;;;-1.30;99.90;;;;;;4160574;28;20504;-80
2021/01/15 00:05:52;;;;;;;20.30;13.07;;;-1.30;99.90;;;;;;4178683;28;20362;-80
2021/01/15 00:07:53;;;;;;;24.42;15.60;;;-1.30;99.90;;;;;;4178577;28;20040;-80
2021/01/15 00:09:54;;;;;;;24.45;14.32;;;-1.40;99.90;;;;;;4179299;28;20086;-80
2021/01/15 00:11:54;;;;;;;23.33;14.05;;;-1.40;99.90;;;;;;4177975;28;20421;-80
2021/01/15 00:13:56;;;;;;;23.92;15.27;;;-1.40;99.90;;;;;;4177086;28;20385;-80
2021/01/15 00:15:57;;;;;;;23.38;13.57;;;-1.30;99.90;;;;;;4177954;28;20506;-80
2021/01/15 00:17:57;;;;;;;23.85;14.70;;;-1.30;99.90;;;;;;4177962;28;20029;-82
2021/01/15 00:19:58;;;;;;;24.10;13.88;;;-1.20;99.90;;;;;;4178372;28;20067;-80
2021/01/15 00:21:58;;;;;;;24.85;15.70;;;-1.10;99.90;;;;;;4178064;28;20029;-81
2021/01/15 00:24:04;;;;;;;29.60;14.95;;;-1.10;99.90;;;;;;4160703;28;20465;-81
2021/01/15 00:26:04;;;;;;;22.13;13.52;;;-1.00;99.90;;;;;;4152206;28;20033;-81
2021/01/15 00:28:05;;;;;;;19.85;13.80;;;-1.00;99.90;;;;;;4179328;28;20029;-81
2021/01/15 00:30:10;;;;;;;18.30;11.70;;;-0.90;99.90;;;;;;4161662;28;20033;-81
2021/01/15 00:32:11;;;;;;;19.13;12.70;;;-0.90;99.90;;;;;;4179270;28;20036;-81
2021/01/15 00:34:12;;;;;;;17.75;11.85;;;-0.70;99.90;;;;;;4179144;28;20480;-81
2021/01/15 00:36:13;;;;;;;20.38;11.07;;;-0.60;99.90;;;;;;4161775;28;20026;-81
2021/01/15 00:38:14;;;;;;;18.23;10.85;;;-0.60;99.90;;;;;;4179280;28;20029;-80
2021/01/15 00:40:15;;;;;;;20.27;12.13;;;-0.60;99.90;;;;;;4179519;28;20031;-81
2021/01/15 00:42:15;;;;;;;19.05;12.20;;;-0.50;99.90;;;;;;4161411;28;20060;-80
2021/01/15 00:44:16;;;;;;;19.55;11.27;;;-0.50;99.90;;;;;;4179234;28;20059;-80
2021/01/15 00:46:31;;;;;;;17.42;11.50;;;-0.50;99.90;;;;;;4161536;28;20032;-81
2021/01/15 00:48:31;;;;;;;20.10;11.80;;;-0.50;99.90;;;;;;4179313;28;20116;-81
2021/01/15 00:50:32;;;;;;;17.60;11.43;;;-0.50;99.90;;;;;;4179341;28;20037;-81
2021/01/15 00:52:32;;;;;;;16.13;10.88;;;-0.50;99.90;;;;;;4161321;28;20551;-82
2021/01/15 00:54:33;;;;;;;18.58;11.25;;;-0.50;99.90;;;;;;4178824;28;20084;-81
2021/01/15 00:56:33;;;;;;;16.25;12.40;;;-0.50;99.90;;;;;;4178155;28;20029;-81
2021/01/15 00:58:34;;;;;;;19.63;11.20;;;-0.40;99.90;;;;;;4178243;28;20036;-82
2021/01/15 01:00:35;;;;;;;17.17;11.27;;;-0.40;99.90;;;;;;4177956;28;20112;-82
2021/01/15 01:02:35;;;;;;;16.60;11.25;;;-0.40;99.90;;;;;;4177543;28;20045;-81
2021/01/15 01:04:36;;;;;;;15.48;10.45;;;-0.30;99.90;;;;;;4159699;28;20048;-81
2021/01/15 01:06:37;;;;;;;17.52;11.40;;;-0.30;99.90;;;;;;4177574;28;20119;-82
2021/01/15 01:08:38;;;;;;;17.10;11.63;;;-0.30;99.90;;;;;;4178131;28;20028;-81
2021/01/15 01:10:40;;;;;;;17.60;11.70;;;-0.30;99.90;;;;;;4160398;28;20436;-81
2021/01/15 01:12:41;;;;;;;16.20;11.18;;;-0.30;99.90;;;;;;4159975;28;20029;-81
2021/01/15 01:14:42;;;;;;;16.25;12.05;;;-0.20;99.90;;;;;;4177560;28;20064;-81
2021/01/15 01:16:42;;;;;;;18.55;11.23;;;-0.20;99.90;;;;;;4159928;28;20026;-82
2021/01/15 01:18:44;;;;;;;16.40;11.52;;;-0.20;99.90;;;;;;4177577;28;20111;-81
2021/01/15 01:20:45;;;;;;;17.38;11.13;;;-0.20;99.90;;;;;;4177733;28;20427;-80
2021/01/15 01:22:49;;;;;;;16.63;10.48;;;-0.30;99.90;;;;;;4177376;28;20041;-80
2021/01/15 01:24:50;;;;;;;16.50;11.50;;;-0.20;99.90;;;;;;4177538;28;20570;-80
2021/01/15 01:26:50;;;;;;;14.75;9.93;;;-0.20;99.90;;;;;;4163468;28;20045;-80
2021/01/15 01:28:51;;;;;;;12.13;10.48;;;-0.20;99.90;;;;;;4182006;28;20037;-81
2021/01/15 01:30:52;;;;;;;16.27;10.70;;;-0.20;99.90;;;;;;4181957;28;20388;-81
2021/01/15 01:32:52;;;;;;;15.05;11.10;;;-0.10;99.90;;;;;;4182058;28;20435;-81
2021/01/15 01:34:53;;;;;;;13.77;10.02;;;-0.10;99.90;;;;;;4171330;28;20068;-81
2021/01/15 01:36:54;;;;;;;14.35;10.98;;;-0.10;99.90;;;;;;4181637;28;20033;-81
2021/01/15 01:38:54;;;;;;;15.93;10.52;;;-0.10;99.90;;;;;;4180827;28;20029;-81
2021/01/15 01:40:55;;;;;;;12.93;9.95;;;-0.10;99.90;;;;;;4180096;28;20488;-81
2021/01/15 01:42:55;;;;;;;16.80;11.13;;;0.00;99.90;;;;;;4180106;28;20032;-81
2021/01/15 01:44:56;;;;;;;17.13;10.90;;;0.00;99.90;;;;;;4162613;28;20041;-82
2021/01/15 01:46:57;;;;;;;16.83;12.10;;;0.00;99.90;;;;;;4162326;28;20033;-81
2021/01/15 01:48:57;;;;;;;14.50;11.48;;;0.00;99.90;;;;;;4180272;28;20048;-81
2021/01/15 01:51:00;;;;;;;15.88;10.48;;;0.00;99.90;;;;;;4180285;28;20120;-81
2021/01/15 01:53:02;;;;;;;16.52;11.98;;;0.00;99.90;;;;;;4162181;28;20100;-81
2021/01/15 01:55:04;;;;;;;18.50;11.57;;;0.10;99.90;;;;;;4179848;28;20017;-80
2021/01/15 01:57:06;;;;;;;15.95;11.77;;;0.10;99.90;;;;;;4181389;28;20025;-80
2021/01/15 01:59:09;;;;;;;18.88;10.82;;;0.10;99.90;;;;;;4180217;28;20021;-81
2021/01/15 02:01:10;;;;;;;15.88;11.05;;;0.10;99.90;;;;;;4161963;28;20053;-81
2021/01/15 02:03:17;;;;;;;15.68;10.43;;;0.10;99.90;;;;;;4162485;28;20038;-82
2021/01/15 02:05:17;;;;;;;15.93;11.23;;;0.10;99.90;;;;;;4180094;28;20028;-81
2021/01/15 02:07:18;;;;;;;17.85;10.90;;;0.10;99.90;;;;;;4180005;28;20025;-79
2021/01/15 02:09:27;;;;;;;14.98;10.75;;;0.20;99.90;;;;;;4179873;28;20435;-80
2021/01/15 02:11:51;;;;;;;16.70;10.95;;;0.20;99.90;;;;;;4179691;28;20032;-82
2021/01/15 02:14:01;;;;;;;;;;;0.20;99.90;;;;;;4168911;28;20119;-82
2021/01/15 02:16:06;;;;;;;16.90;11.45;;;0.20;99.90;;;;;;4181013;28;19935;-79
2021/01/15 02:18:16;;;;;;;19.27;11.90;;;0.20;99.90;;;;;;4163515;28;20029;-79
2021/01/15 02:20:25;;;;;;;16.23;12.00;;;;;;;;;;4163373;28;20534;-82
2021/01/15 02:22:26;;;;;;;18.83;11.57;;;0.20;99.90;;;;;;4181408;28;20041;-82
2021/01/15 02:24:36;;;;;;;16.88;11.20;;;0.30;99.90;;;;;;4180965;28;20064;-81
2021/01/15 02:26:48;;;;;;;13.82;11.73;;;0.30;99.90;;;;;;4162459;28;20033;-81
2021/01/15 02:29:08;;;;;;;17.42;10.55;;;0.30;99.90;;;;;;4178890;28;20118;-81
2021/01/15 02:31:27;;;;;;;18.00;10.98;;;0.30;99.90;;;;;;4162941;28;20594;-81
2021/01/15 02:34:10;;;;;;;12.65;10.23;;;0.30;99.90;;;;;;4180926;28;20451;-81
2021/01/15 02:36:32;;;;;;;13.20;10.55;;;0.40;99.90;;;;;;4116369;28;20101;-82
2021/01/15 02:38:54;;;;;;;15.13;11.18;;;0.40;99.90;;;;;;4162454;28;20043;-81
2021/01/15 02:41:02;;;;;;;16.58;10.52;;;0.40;99.90;;;;;;4180870;28;20033;-81
2021/01/15 02:43:03;;;;;;;14.88;10.30;;;0.40;99.90;;;;;;4162833;28;20083;-81
2021/01/15 02:45:09;;;;;;;14.50;11.85;;;0.40;99.90;;;;;;4180821;28;20044;-81
2021/01/15 02:47:18;;;;;;;16.13;11.55;;;0.40;99.90;;;;;;4180927;28;20032;-81
2021/01/15 02:49:20;;;;;;;15.63;10.50;;;0.40;99.90;;;;;;4180639;28;20057;-81
2021/01/15 02:51:21;;;;;;;15.10;11.25;;;0.40;99.90;;;;;;4163004;28;20064;-81
2021/01/15 02:53:21;;;;;;;15.63;11.13;;;0.40;99.90;;;;;;4162679;28;20045;-81
2021/01/15 02:55:23;;;;;;;15.05;10.60;;;0.40;99.90;;;;;;4180690;28;20485;-81
2021/01/15 02:57:24;;;;;;;16.85;12.60;;;0.40;99.90;;;;;;4180736;28;20029;-81
2021/01/15 02:59:24;;;;;;;16.38;11.32;;;0.40;99.90;;;;;;4180307;28;20047;-80
2021/01/15 03:01:32;;;;;;;19.50;12.05;;;0.40;99.90;;;;;;4180899;28;20036;-81
2021/01/15 03:03:49;;;;;;;16.63;11.93;;;0.30;99.90;;;;;;4162872;28;20045;-81
2021/01/15 03:06:18;;;;;;;15.45;11.40;;;0.30;99.90;;;;;;4180575;28;20057;-81
2021/01/15 03:08:21;;;;;;;17.52;11.23;;;0.30;99.90;;;;;;4155154;28;20476;-81
2021/01/15 03:10:24;;;;;;;;;;;0.30;99.90;;;;;;4155802;28;20030;-81
2021/01/15 03:12:26;;;;;;;13.70;10.35;;;0.40;99.90;;;;;;4156174;28;19913;-81
2021/01/15 03:14:29;;;;;;;13.57;10.27;;;0.40;99.90;;;;;;4162683;28;20029;-81
2021/01/15 03:16:30;;;;;;;15.65;10.43;;;0.40;99.90;;;;;;4162652;28;20034;-82
2021/01/15 03:18:32;;;;;;;15.57;10.85;;;0.60;99.90;;;;;;4162567;28;20044;-81
2021/01/15 03:20:33;;;;;;;16.88;11.07;;;0.50;99.90;;;;;;4162761;28;20040;-82
2021/01/15 03:22:35;;;;;;;17.92;11.48;;;0.60;99.90;;;;;;4180225;28;20495;-82
2021/01/15 03:24:36;;;;;;;15.70;11.15;;;0.60;99.90;;;;;;4180291;28;20123;-82
2021/01/15 03:26:36;;;;;;;22.80;11.15;;;0.50;99.90;;;;;;4161495;28;20044;-82
2021/01/15 03:28:37;;;;;;;20.70;12.13;;;0.50;99.90;;;;;;4161198;28;20048;-81
2021/01/15 03:30:37;;;;;;;18.58;10.40;;;0.60;99.90;;;;;;4162313;28;20056;-82
2021/01/15 03:32:39;;;;;;;18.10;11.90;;;0.60;99.90;;;;;;4179831;28;20029;-80
2021/01/15 03:34:40;;;;;;;18.27;11.48;;;0.60;99.90;;;;;;4180310;28;20073;-80
2021/01/15 03:36:40;;;;;;;14.82;10.38;;;0.60;99.90;;;;;;4179929;28;20112;-80
2021/01/15 03:38:41;;;;;;;18.27;10.93;;;0.60;99.90;;;;;;4180009;28;20029;-80
2021/01/15 03:40:43;;;;;;;21.35;13.02;;;0.60;99.90;;;;;;4180236;28;20549;-81
2021/01/15 03:42:44;;;;;;;13.60;10.00;;;0.60;99.90;;;;;;4160916;28;20040;-82
2021/01/15 03:44:44;;;;;;;20.35;11.13;;;0.60;99.90;;;;;;4178836;28;20028;-83
2021/01/15 03:46:45;;;;;;;17.25;12.52;;;0.50;99.90;;;;;;4178112;28;20423;-82
2021/01/15 03:48:46;;;;;;;18.33;11.02;;;0.50;99.90;;;;;;4179464;28;20063;-83
2021/01/15 03:50:48;;;;;;;19.48;11.27;;;0.50;99.90;;;;;;4160659;28;20025;-83
2021/01/15 03:52:48;;;;;;;18.38;11.40;;;0.50;99.90;;;;;;4179940;28;20049;-83
2021/01/15 03:54:49;;;;;;;16.92;11.20;;;0.50;99.90;;;;;;4179997;28;20047;-83
2021/01/15 03:56:50;;;;;;;16.98;11.23;;;0.50;99.90;;;;;;4162187;28;20405;-82
2021/01/15 03:58:51;;;;;;;21.42;12.02;;;0.50;99.90;;;;;;4178229;28;20424;-83
2021/01/15 04:00:51;;;;;;;18.13;11.40;;;0.50;99.90;;;;;;4161687;28;20026;-83
2021/01/15 04:02:52;;;;;;;18.77;13.27;;;0.50;99.90;;;;;;4161869;28;20477;-83
2021/01/15 04:04:53;;;;;;;14.38;10.70;;;0.50;99.90;;;;;;4162191;28;20416;-82
2021/01/15 04:06:53;;;;;;;16.92;11.15;;;0.50;99.90;;;;;;4161940;28;20026;-81
2021/01/15 04:08:54;;;;;;;15.10;12.02;;;0.50;99.90;;;;;;4179747;28;20028;-82
2021/01/15 04:10:55;;;;;;;14.68;11.68;;;0.50;99.90;;;;;;4179742;28;20036;-81
2021/01/15 04:12:55;;;;;;;17.60;11.90;;;0.50;99.90;;;;;;4179687;28;20032;-82
2021/01/15 04:14:56;;;;;;;16.42;11.45;;;0.60;99.90;;;;;;4179629;28;20040;-81
2021/01/15 04:16:57;;;;;;;22.65;13.20;;;0.60;99.90;;;;;;4179166;28;20476;-81
2021/01/15 04:18:57;;;;;;;17.55;11.60;;;0.60;99.90;;;;;;4179806;28;20380;-81
2021/01/15 04:21:05;;;;;;;18.80;13.57;;;0.70;99.90;;;;;;4179536;28;20025;-81
2021/01/15 04:23:07;;;;;;;20.00;10.82;;;0.70;99.90;;;;;;4161682;28;20033;-80
2021/01/15 04:25:08;;;;;;;20.73;12.50;;;0.60;99.90;;;;;;4179595;28;20103;-80
2021/01/15 04:27:09;;;;;;;20.27;13.15;;;0.60;99.90;;;;;;4162045;28;20037;-80
2021/01/15 04:29:09;;;;;;;15.90;10.95;;;0.60;99.90;;;;;;4161788;28;20072;-81
2021/01/15 04:31:15;;;;;;;18.92;11.93;;;0.60;99.90;;;;;;4179639;28;20124;-80
2021/01/15 04:33:16;;;;;;;17.90;11.65;;;0.50;99.90;;;;;;4179566;28;20021;-80
2021/01/15 04:35:19;;;;;;;22.05;12.60;;;0.60;99.90;;;;;;4179474;28;20438;-81
2021/01/15 04:37:19;;;;;;;16.17;11.27;;;0.60;99.90;;;;;;4161672;28;20041;-80
2021/01/15 04:39:20;;;;;;;19.23;12.10;;;0.60;99.90;;;;;;4179748;28;20021;-79
2021/01/15 04:41:26;;;;;;;18.17;12.05;;;0.60;99.90;;;;;;4179493;28;22206;-80
2021/01/15 04:43:28;;;;;;;17.10;11.23;;;0.60;99.90;;;;;;4179504;28;20419;-80
2021/01/15 04:45:28;;;;;;;18.10;11.68;;;0.60;99.90;;;;;;4178005;28;20120;-80
2021/01/15 04:47:30;;;;;;;20.17;10.98;;;0.60;99.90;;;;;;4159905;28;20473;-80
2021/01/15 04:49:35;;;;;;;15.98;11.77;;;0.60;99.90;;;;;;4177728;28;20025;-81
2021/01/15 04:51:37;;;;;;;17.65;12.27;;;0.60;99.90;;;;;;4160124;28;20038;-81
2021/01/15 04:53:44;;;;;;;23.88;12.52;;;0.60;99.90;;;;;;4161676;28;20073;-82
2021/01/15 04:55:44;;;;;;;16.58;11.57;;;0.50;99.90;;;;;;4179424;28;20052;-81
2021/01/15 04:57:48;;;;;;;18.08;13.13;;;0.60;99.90;;;;;;4179369;28;20056;-81
2021/01/15 04:59:53;;;;;;;18.77;11.23;;;0.60;99.90;;;;;;4160221;28;20034;-81
2021/01/15 05:02:07;;;;;;;17.67;12.27;;;0.60;99.90;;;;;;4180806;28;20032;-82
2021/01/15 05:04:13;;;;;;;16.60;10.88;;;0.50;99.90;;;;;;4180674;28;20021;-81
2021/01/15 05:06:19;;;;;;;17.80;12.65;;;0.50;99.90;;;;;;4181277;28;20500;-82
2021/01/15 05:08:27;;;;;;;18.70;11.77;;;0.60;99.90;;;;;;4163412;28;20604;-81
2021/01/15 05:10:29;;;;;;;16.90;12.68;;;0.50;99.90;;;;;;4181236;28;20672;-81
2021/01/15 05:12:30;;;;;;;16.35;12.55;;;0.50;99.90;;;;;;4163136;28;20037;-81
2021/01/15 05:14:33;;;;;;;17.73;11.77;;;0.50;99.90;;;;;;4182045;28;20059;-82
2021/01/15 05:16:36;;;;;;;19.00;12.85;;;0.60;99.90;;;;;;4182431;28;20033;-82
2021/01/15 05:18:42;;;;;;;17.10;11.35;;;0.50;99.90;;;;;;4182005;28;20099;-81
2021/01/15 05:20:44;;;;;;;21.52;12.50;;;0.50;99.90;;;;;;4182220;28;20037;-81
2021/01/15 05:22:45;;;;;;;19.40;12.43;;;0.50;99.90;;;;;;4182365;28;20076;-82
2021/01/15 05:24:47;;;;;;;17.38;11.85;;;0.50;99.90;;;;;;4164252;28;20064;-81
2021/01/15 05:26:48;;;;;;;22.10;12.75;;;0.50;99.90;;;;;;4182398;28;20476;-81
2021/01/15 05:28:49;;;;;;;17.75;13.20;;;0.50;99.90;;;;;;4182044;28;20086;-81
2021/01/15 05:30:58;;;;;;;21.00;12.50;;;0.50;99.90;;;;;;4164203;28;20045;-80
2021/01/15 05:33:00;;;;;;;19.77;12.43;;;0.50;99.90;;;;;;4181645;28;20424;-81
2021/01/15 05:35:00;;;;;;;20.50;12.40;;;0.50;99.90;;;;;;4170430;28;20041;-81
2021/01/15 05:37:01;;;;;;;19.45;13.02;;;0.50;99.90;;;;;;4167937;28;20033;-80
2021/01/15 05:39:08;;;;;;;21.50;13.02;;;0.50;99.90;;;;;;4150519;28;20034;-81
2021/01/15 05:41:21;;;;;;;19.15;12.80;;;0.50;99.90;;;;;;4152152;28;20493;-81
2021/01/15 05:43:32;;;;;;;20.75;13.77;;;0.50;99.90;;;;;;4174088;28;20472;-79
2021/01/15 05:45:33;;;;;;;24.20;13.23;;;0.50;99.90;;;;;;4150274;28;20033;-82
2021/01/15 05:47:44;;;;;;;18.90;12.18;;;0.40;99.90;;;;;;4180312;28;20057;-82
2021/01/15 05:49:55;;;;;;;20.08;12.43;;;0.50;99.90;;;;;;4167593;28;20057;-81
2021/01/15 05:52:08;;;;;;;16.42;11.90;;;0.50;99.90;;;;;;4165308;28;20029;-81
2021/01/15 05:54:10;;;;;;;18.27;13.52;;;0.50;99.90;;;;;;4148013;28;20042;-80
2021/01/15 05:56:11;;;;;;;17.42;12.35;;;0.50;99.90;;;;;;4168849;28;20036;-80
2021/01/15 05:58:11;;;;;;;20.33;13.20;;;0.50;99.90;;;;;;4166902;28;20485;-81
2021/01/15 06:00:32;;;;;;;20.80;14.68;;;0.50;99.90;;;;;;4166651;28;20033;-82
2021/01/15 06:02:33;;;;;;;19.80;11.50;;;0.50;99.90;;;;;;4167376;28;20034;-81
2021/01/15 06:04:38;;;;;;;20.05;13.68;;;0.50;99.90;;;;;;4175777;28;20116;-81
2021/01/15 06:06:40;;;;;;;17.85;13.02;;;0.50;99.90;;;;;;4166991;28;20033;-81
2021/01/15 06:08:43;;;;;;;20.67;13.43;;;0.50;99.90;;;;;;4149372;28;20146;-81
2021/01/15 06:10:46;;;;;;;19.85;13.48;;;0.50;99.90;;;;;;4160655;28;20028;-80
2021/01/15 06:12:47;;;;;;;20.70;12.65;;;0.50;99.90;;;;;;4147104;28;20109;-81
2021/01/15 06:14:57;;;;;;;22.27;13.05;;;0.50;99.90;;;;;;4160759;28;20384;-82
2021/01/15 06:17:09;;;;;;;23.75;14.77;;;0.50;99.90;;;;;;4164661;28;20498;-82
2021/01/15 06:19:09;;;;;;;18.80;13.68;;;0.50;99.90;;;;;;4163155;28;20064;-82
2021/01/15 06:21:13;;;;;;;19.80;13.63;;;0.50;99.90;;;;;;4163425;28;20030;-81
2021/01/15 06:23:15;;;;;;;22.27;13.85;;;0.50;99.90;;;;;;4181217;28;20147;-81
2021/01/15 06:25:17;;;;;;;18.92;13.18;;;0.50;99.90;;;;;;4180073;28;20029;-81
2021/01/15 06:27:24;;;;;;;17.63;12.05;;;0.50;99.90;;;;;;4179977;28;20035;-82
2021/01/15 06:29:35;;;;;;;19.42;13.55;;;0.50;99.90;;;;;;4161712;28;20037;-82
2021/01/15 06:31:43;;;;;;;20.05;14.18;;;0.50;99.90;;;;;;4180700;28;20040;-82
2021/01/15 06:34:00;;;;;;;22.20;13.75;;;0.50;99.90;;;;;;4163304;28;20477;-82
2021/01/15 06:36:04;;;;;;;20.75;12.82;;;0.50;99.90;;;;;;4180786;28;20036;-82
2021/01/15 06:38:10;;;;;;;22.75;13.68;;;0.50;99.90;;;;;;4180696;28;20130;-80
2021/01/15 06:40:12;;;;;;;19.27;12.98;;;0.50;99.90;;;;;;4180216;28;20119;-79
2021/01/15 06:42:15;;;;;;;18.30;12.05;;;0.50;99.90;;;;;;4162452;28;20029;-81
2021/01/15 06:44:15;;;;;;;19.17;12.32;;;0.50;99.90;;;;;;4162962;28;20029;-82
2021/01/15 06:46:30;;;;;;;20.88;11.93;;;0.50;99.90;;;;;;4162650;28;20121;-80
2021/01/15 06:48:38;;;;;;;20.92;13.40;;;0.50;99.90;;;;;;4162806;28;20033;-81
2021/01/15 06:50:45;;;;;;;17.48;12.80;;;0.50;99.90;;;;;;4179805;28;20037;-80
2021/01/15 06:53:07;;;;;;;23.10;13.40;;;0.50;99.90;;;;;;4161447;28;20041;-82
2021/01/15 06:55:13;;;;;;;22.20;13.75;;;0.50;99.90;;;;;;4180224;28;20018;-81
2021/01/15 06:57:15;;;;;;;19.25;13.15;;;0.50;99.90;;;;;;4179978;28;20562;-82
2021/01/15 06:59:31;;;;;;;19.98;13.50;;;0.50;99.90;;;;;;4179056;28;20060;-81
2021/01/15 07:01:37;;;;;;;23.85;14.70;;;0.50;99.90;;;;;;4162254;28;20028;-82
2021/01/15 07:03:59;;;;;;;20.33;13.77;;;0.50;99.90;;;;;;4180499;28;20036;-82
2021/01/15 07:06:01;;;;;;;22.90;14.25;;;0.50;99.90;;;;;;4180409;28;20040;-80
2021/01/15 07:08:03;;;;;;;23.20;14.32;;;0.50;99.90;;;;;;4178920;28;20035;-79
2021/01/15 07:10:04;;;;;;;19.77;13.15;;;0.60;99.90;;;;;;4161533;28;20057;-81
2021/01/15 07:12:08;;;;;;;22.73;14.25;;;0.60;99.90;;;;;;4179551;28;20037;-81
2021/01/15 07:14:09;;;;;;;19.10;14.13;;;0.60;99.90;;;;;;4180267;28;20033;-80
2021/01/15 07:16:24;;;;;;;20.05;13.15;;;0.60;99.90;;;;;;4179580;28;20064;-82
2021/01/15 07:18:31;;;;;;;25.25;13.95;;;0.60;99.90;;;;;;4174900;28;20397;-81
2021/01/15 07:20:44;;;;;;;19.52;13.38;;;0.50;99.90;;;;;;4158082;28;20532;-81
2021/01/15 07:22:52;;;;;;;24.65;15.20;;;0.50;99.90;;;;;;4163994;28;20043;-81
2021/01/15 07:24:57;;;;;;;21.23;13.57;;;0.50;99.90;;;;;;4171641;28;20033;-82
2021/01/15 07:26:58;;;;;;;22.27;14.68;;;0.60;99.90;;;;;;4165324;28;20473;-82
2021/01/15 07:28:59;;;;;;;19.33;13.10;;;0.50;99.90;;;;;;4166492;28;20362;-82
2021/01/15 07:31:04;;;;;;;20.08;14.18;;;0.50;99.90;;;;;;4161163;28;20424;-81
2021/01/15 07:33:07;;;;;;;23.83;14.85;;;0.50;99.90;;;;;;4178884;28;20116;-82
2021/01/15 07:35:15;;;;;;;20.10;14.52;;;0.60;99.90;;;;;;4160320;28;20188;-81
2021/01/15 07:37:27;;;;;;;20.83;15.00;;;0.60;99.90;;;;;;4160732;28;20084;-81
2021/01/15 07:39:29;;;;;;;24.40;14.00;;;0.50;99.90;;;;;;4161463;28;20036;-81
2021/01/15 07:41:44;;;;;;;22.40;14.00;;;0.60;99.90;;;;;;4177634;28;20078;-80
2021/01/15 07:43:44;;;;;;;20.27;13.73;;;0.50;99.90;;;;;;4179601;28;20028;-81
2021/01/15 07:45:46;;;;;;;20.73;14.15;;;0.50;99.90;;;;;;4153941;28;20096;-81
2021/01/15 07:47:47;;;;;;;20.52;13.38;;;0.60;99.90;;;;;;4179033;28;20416;-81
2021/01/15 07:49:49;;;;;;;27.05;14.30;;;0.60;99.90;;;;;;4178635;28;20021;-82
2021/01/15 07:52:05;;;;;;;21.95;13.82;;;0.60;99.90;;;;;;4158955;28;20039;-82
2021/01/15 07:54:05;;;;;;;19.50;14.95;;;0.60;99.90;;;;;;4178859;28;20047;-83
2021/01/15 07:56:07;;;;;;;21.08;13.75;;;0.60;99.90;;;;;;4179505;28;20029;-80
2021/01/15 07:58:07;;;;;;;22.67;13.52;;;0.60;99.90;;;;;;4173429;28;20033;-81
2021/01/15 08:00:26;;;;;;;22.08;13.55;;;0.60;99.90;;;;;;4159114;28;20083;-80
2021/01/15 08:02:27;;;;;;;18.95;14.10;;;0.50;99.90;;;;;;4175643;28;20052;-80
2021/01/15 08:04:27;;;;;;;23.90;14.38;;;0.50;99.90;;;;;;4179256;28;20040;-81
2021/01/15 08:06:28;;;;;;;23.10;15.98;;;0.50;99.90;;;;;;4177933;28;20039;-81
2021/01/15 08:08:28;;;;;;;21.23;13.80;;;0.50;99.90;;;;;;4161808;28;20044;-83
2021/01/15 08:10:30;;;;;;;20.92;15.13;;;0.60;99.90;;;;;;4174596;28;20045;-80
2021/01/15 08:12:40;;;;;;;19.27;14.05;;;0.60;99.90;;;;;;4178646;28;20051;-82
2021/01/15 08:14:40;;;;;;;23.52;14.82;;;0.60;99.90;;;;;;4160896;28;20029;-79
2021/01/15 08:16:45;;;;;;;20.17;14.30;;;0.60;99.90;;;;;;4178909;28;20040;-81
2021/01/15 08:18:47;;;;;;;25.52;14.43;;;0.70;99.90;;;;;;4161180;28;20029;-80
2021/01/15 08:20:50;;;;;;;22.92;14.18;;;0.70;99.90;;;;;;4178753;28;20037;-80
2021/01/15 08:22:51;;;;;;;25.30;14.32;;;0.80;99.90;;;;;;4179339;28;20087;-80
2021/01/15 08:24:51;;;;;;;20.80;14.20;;;0.80;99.90;;;;;;4178469;28;20037;-80
2021/01/15 08:26:54;;;;;;;22.70;14.65;;;0.80;99.90;;;;;;4159506;28;20116;-80
2021/01/15 08:28:55;;;;;;;21.67;14.52;;;0.80;99.90;;;;;;4161088;28;20034;-80
2021/01/15 08:31:00;;;;;;;22.38;15.27;;;0.80;99.90;;;;;;4156067;28;20529;-81
2021/01/15 08:33:01;;;;;;;25.73;14.75;;;0.90;99.90;;;;;;4154771;28;20095;-80
2021/01/15 08:35:02;;;;;;;19.55;14.40;;;0.90;99.90;;;;;;4167142;28;20033;-80
2021/01/15 08:37:05;;;;;;;26.45;14.90;;;0.90;99.90;;;;;;4174864;28;20108;-80
2021/01/15 08:39:08;;;;;;;27.42;13.65;;;1.00;99.90;;;;;;4152295;28;20500;-81
2021/01/15 08:41:24;;;;;;;25.83;15.45;;;1.00;99.90;;;;;;4152020;28;20034;-82
2021/01/15 08:43:26;;;;;;;18.67;13.35;;;1.00;99.90;;;;;;4181274;28;20033;-82
2021/01/15 08:45:28;;;;;;;20.02;13.95;;;1.00;99.90;;;;;;4180810;28;20083;-83
2021/01/15 08:47:34;;;;;;;22.83;15.18;;;1.10;99.90;;;;;;4171652;28;20102;-81
2021/01/15 08:49:35;;;;;;;19.13;13.65;;;1.10;99.90;;;;;;4180658;28;20056;-81
2021/01/15 08:51:38;;;;;;;24.83;13.95;;;1.10;99.90;;;;;;4181310;28;20029;-81
2021/01/15 08:54:03;;;;;;;22.60;14.25;;;1.10;99.90;;;;;;4181327;28;20568;-83
2021/01/15 08:56:04;;;;;;;23.92;14.65;;;1.10;99.90;;;;;;4180908;28;20120;-81
2021/01/15 08:58:06;;;;;;;24.55;15.43;;;1.20;99.90;;;;;;4180441;28;20037;-81
2021/01/15 09:00:09;;;;;;;23.38;15.20;;;1.20;99.90;;;;;;4172945;28;20107;-81
2021/01/15 09:02:12;;;;;;;25.55;15.70;;;1.20;99.90;;;;;;4180005;28;20447;-82
2021/01/15 09:04:13;;;;;;;25.08;15.38;;;1.20;99.90;;;;;;4146292;28;20030;-81
2021/01/15 09:06:14;;;;;;;21.00;13.77;;;1.20;99.90;;;;;;4147826;28;20026;-81
2021/01/15 09:08:17;;;;;;;25.70;14.45;;;1.20;99.90;;;;;;4165132;28;20033;-83
2021/01/15 09:10:18;;;;;;;25.40;15.10;;;1.20;99.90;;;;;;4163667;28;20025;-83
2021/01/15 09:12:21;;;;;;;21.27;14.85;;;1.30;99.90;;;;;;4157822;28;20065;-81
2021/01/15 09:14:24;;;;;;;21.83;14.40;;;1.30;99.90;;;;;;4180752;28;20441;-80
2021/01/15 09:16:27;;;;;;;20.33;14.32;;;1.30;99.90;;;;;;4181762;28;20037;-82
2021/01/15 09:18:28;;;;;;;22.60;15.20;;;1.30;99.90;;;;;;4180186;28;20448;-81
2021/01/15 09:20:28;;;;;;;23.60;15.15;;;1.30;99.90;;;;;;4159877;28;20040;-83
2021/01/15 09:22:30;;;;;;;19.35;13.80;;;1.40;99.90;;;;;;4165118;28;20083;-81
2021/01/15 09:24:32;;;;;;;21.08;13.82;;;1.40;99.90;;;;;;4156632;28;20084;-82
2021/01/15 09:26:34;;;;;;;22.42;15.95;;;1.40;99.90;;;;;;4169294;28;20046;-82
2021/01/15 09:28:35;;;;;;;21.87;14.63;;;1.40;99.90;;;;;;4145594;28;20089;-82
2021/01/15 09:30:35;;;;;;;21.58;14.60;;;1.50;99.90;;;;;;4176550;28;20321;-82
2021/01/15 09:32:40;;;;;;;22.63;14.82;;;1.50;99.90;;;;;;4178548;28;20037;-81
2021/01/15 09:34:41;;;;;;;21.92;14.35;;;1.40;99.90;;;;;;4176753;28;20098;-81
2021/01/15 09:36:44;;;;;;;18.00;12.90;;;1.40;99.90;;;;;;4160817;28;20424;-82
2021/01/15 09:38:45;;;;;;;24.42;15.48;;;1.60;99.90;;;;;;4159475;28;20548;-82
2021/01/15 09:40:46;;;;;;;23.90;14.90;;;1.60;99.90;;;;;;4173280;28;20041;-82
2021/01/15 09:42:52;;;;;;;24.48;15.02;;;1.60;99.90;;;;;;4171006;28;20037;-82
2021/01/15 09:44:53;;;;;;;22.95;14.25;;;1.60;99.90;;;;;;4170092;28;20120;-81
2021/01/15 09:47:02;;;;;;;22.27;13.93;;;1.60;99.90;;;;;;4170156;28;20491;-82
2021/01/15 09:49:03;;;;;;;22.25;13.70;;;1.70;99.90;;;;;;4152287;28;20381;-79
2021/01/15 09:51:04;;;;;;;24.30;14.52;;;1.70;99.90;;;;;;4166648;28;20116;-82
2021/01/15 09:53:04;;;;;;;21.98;14.02;;;1.70;99.90;;;;;;4167911;28;20049;-81
2021/01/15 09:55:05;;;;;;;24.38;13.90;;;1.70;99.90;;;;;;4171205;28;20040;-82
2021/01/15 09:57:06;;;;;;;23.25;14.25;;;1.70;99.90;;;;;;4175664;28;20025;-81
2021/01/15 09:59:08;;;;;;;21.27;14.95;;;1.80;99.90;;;;;;4163981;28;20071;-82
2021/01/15 10:01:09;;;;;;;22.00;14.77;;;1.80;99.90;;;;;;4148467;28;20362;-82
2021/01/15 10:03:10;;;;;;;20.73;14.25;;;1.80;99.90;;;;;;4180980;28;20027;-82
2021/01/15 10:05:11;;;;;;;22.95;15.63;;;1.80;99.90;;;;;;4162518;28;20048;-82
2021/01/15 10:07:11;;;;;;;19.73;14.45;;;1.80;99.90;;;;;;4179441;28;20029;-82
2021/01/15 10:09:14;;;;;;;22.10;15.13;;;1.80;99.90;;;;;;4162682;28;20476;-81
2021/01/15 10:11:25;;;;;;;19.93;14.90;;;1.80;99.90;;;;;;4143686;28;20144;-82
2021/01/15 10:13:25;;;;;;;27.70;16.10;;;1.80;99.90;;;;;;4173599;28;20358;-82
2021/01/15 10:15:26;;;;;;;24.05;14.60;;;1.90;99.90;;;;;;4166516;28;20079;-82
2021/01/15 10:17:27;;;;;;;22.73;16.38;;;1.90;99.90;;;;;;4161069;28;20232;-83
2021/01/15 10:19:27;;;;;;;31.58;17.55;;;1.90;99.90;;;;;;4180303;28;20037;-83
2021/01/15 10:21:28;;;;;;;22.40;15.52;;;1.90;99.90;;;;;;4180807;28;20104;-82
2021/01/15 10:23:29;;;;;;;24.77;16.30;;;1.90;99.90;;;;;;4180101;28;20065;-82
2021/01/15 10:25:30;;;;;;;23.08;16.08;;;1.80;99.90;;;;;;4184592;28;20025;-82
2021/01/15 10:27:30;;;;;;;24.83;16.13;;;1.80;99.90;;;;;;4177804;28;20050;-82
2021/01/15 10:29:31;;;;;;;21.55;15.45;;;1.80;99.90;;;;;;4180567;28;20381;-83
2021/01/15 10:31:52;;;;;;;20.02;14.88;;;1.90;99.90;;;;;;4180480;28;20044;-80
2021/01/15 10:33:56;;;;;;;21.92;15.93;;;1.90;99.90;;;;;;4179982;28;20384;-83
2021/01/15 10:35:57;;;;;;;24.95;15.80;;;1.90;99.90;;;;;;4160703;28;20239;-82